ETNL/RLG METAR and TAF weather

Enter ICAO airport designator
Station Type Date Time Source
ETNL METAR 2020/07/02 21:20 UTC NOAA

ETNL 022120Z 22003KT 9999 -RA FEW070 BKN110 16/14 Q1010 BLU


Station Type Date Time Source
ETNL Decoded METAR 2020/07/02 21:20 UTC NOAA

Laage, Germany (ETNL) 53-55N 012-17E 46M
Jul 02, 2020 - 05:20 PM EDT / 2020.07.02 2120 UTC
Wind: from the SW (220 degrees) at 3 MPH (3 KT):0
Visibility: greater than 7 mile(s):0
Sky conditions: mostly cloudy
Weather: light rain
Temperature: 60 F (16 C)
Dew Point: 57 F (14 C)
Relative Humidity: 87%
Pressure (altimeter): 29.83 in. Hg (1010 hPa)
ob: ETNL 022120Z 22003KT 9999 -RA FEW070 BKN110 16/14 Q1010 BLU
cycle: 21

Station Type Date Time Source
ETNL TAF 2019/06/10 05:34 UTC NOAA

TAF ETNL 100400Z 1005/1018 06008KT 9999 NSW BKN100
TEMPO 1005/1018 07012KT 6000 -RA BKN050 OVC100 PROB30 1015/1018 VRB15G30KT 3000 TSRA BKN030CB BY ETGL

Example: see airport list